Needles Airport Needles US
ICAO: KEED
IATA: EED
Category: Medium
Scheduled Services: No

Elevation: 983 ft
TransAlt. 18000 ft.

Airport Communications:
LOS ANGELES CNTR:134.65
ASOS:128.325
PRESCOTT RDO:115.2
CTAF/UNICOM:123

KEED Zoom In..

Runways:

(A) RW 02 length 4235 ft width 100 ft
---- / hdg 16

(B) RW 11 length 5005 ft width 100 ft
---- / hdg 106

(C) RW 20 length 4235 ft width 100 ft
---- / hdg 196

(D) RW 29 length 5005 ft width 100 ft
---- / hdg 286

Location; KEED
Day. 20 / Time. 01.56 Zulu
* Altimeter: 29.77
* Temperature: 43° c. 109.4°f.
* Wind from: 230° Speed 09 kn.
Dewpoint: 14° c.
Visibility: 10 Statute Miles.
Clouds: Clear (automated report).

KEED 200156Z AUTO 23009KT 10SM CLR 43/14 A2977 RMK AO2 SLP040 T04280139


Wind From 230°
Speed 09 kn.

 
 
jpsmedia.com for Web Design worldairports.se 2018   terms of use